Aérodrome :
LOGIN :

S'inscrire | Disclaimer

   EN    FR    IT 

 










Légende :    VFR   VFR Marginal   IFR   IFR Intensif   IFR Très Intensif
Visi : 
Plafond : 
>= 8 km
>= 3000ft
5 à 8 km
1000 à 3000 ft
1500m à 5 km
500 à 1000 ft
800 à 1500m
200 à 500 ft
< 800m
< 200 ft
Symboles :   Orages  Brouillard  Fortes neiges  Fortes précipitations  Vent > 20 kt
SIGMETs :   Divers  Orages  Givrage  Turbulence  Onde Orograph.  Cendres Volcan.







- Altitude de l'aérodrome : 1046 ft
- Code IATA : NUE


EDDN - Nuremberg

DERNIER METAR :
  • 262050Z 26008KT 9999 -RA BKN031 05/M01 Q1029 NOSIG

METARs EXPIRÉS :
  • 262020Z 26008KT 9999 -RA BKN036 05/M01 Q1028 NOSIG
  • 261950Z 27007KT 9999 BKN037 05/M01 Q1028 NOSIG
  • 261920Z 27007KT 9999 -RA BKN038 06/M01 Q1028 NOSIG
  • 261850Z 27005KT 9999 BKN038 06/M01 Q1028 NOSIG
  • 261820Z 28006KT 9999 BKN043 06/M02 Q1028 NOSIG

TAF TAF EDDN
Valide du 26 à 18h jusqu'au 27 à 18h UTC


261700Z 2618/2718 28005KT 9999 BKN035
PROB40
TEMPO 2623/2708 BKN012
BECMG 2708/2710 34005KT
Pas de NOTAMs connus pour ce terrain.



MET'MAP, la Météo Aéronautique d'un coup d'oeil ! - Copyright ORBIFLY Décembre 2007 - Disclaimer

ORBIFLY MET'MAP TEAM :

Programmation & Développement : Alexandra Zaïnal
Conception & Développement : Baudouin d'Aumeries
Co-Programmation & Développement : Marc-Olivier Méhu
Soutien technique & logistique : Manuel Goepfert

Contact : metmap@orbifly.com




SOURCES & CREDITS :

   NOAA